Авиационная погода в Ярославле

СКИДКИ НА СМАРТФОНЫ!

Регион: 
Погода METAR: 
UUDL 120000Z 09001MPS CAVOK 04/04 Q1020 R23/010060 NOSIG RMK QFE757
Время наблюдения
2022-09-12T00:00:00Z
Температура C
4.0
Точка росы
4.0
Направление ветра
90
Скорость ветра (узлы)
2
Метео видимость
6.21
Облачность
CAVOK
Нижняя граница облачности (футы)
Явления погоды
Условия полета
VFR
Аэропорт подробнее: 

Скидки на навигаторы!